sensor_id;sensor_type;location;lat;lon;timestamp;P1;durP1;ratioP1;P2;durP2;ratioP2
3911;SDS011;1971;51.778;10.330;2023-02-03T00:00:36;218.00;;;12.57;;
3911;SDS011;1971;51.778;10.330;2023-02-03T00:03:06;181.20;;;13.13;;
3911;SDS011;1971;51.778;10.330;2023-02-03T00:05:39;317.90;;;20.63;;
3911;SDS011;1971;51.778;10.330;2023-02-03T00:08:10;321.53;;;20.23;;
3911;SDS011;1971;51.778;10.330;2023-02-03T00:10:41;252.27;;;15.43;;
3911;SDS011;1971;51.778;10.330;2023-02-03T00:13:11;300.27;;;18.00;;
3911;SDS011;1971;51.778;10.330;2023-02-03T00:15:42;327.77;;;19.60;;
3911;SDS011;1971;51.778;10.330;2023-02-03T00:18:12;111.57;;;9.03;;
3911;SDS011;1971;51.778;10.330;2023-02-03T00:20:45;126.80;;;8.80;;
3911;SDS011;1971;51.778;10.330;2023-02-03T00:23:15;204.63;;;12.67;;
3911;SDS011;1971;51.778;10.330;2023-02-03T00:25:45;314.20;;;20.03;;
3911;SDS011;1971;51.778;10.330;2023-02-03T00:28:15;151.87;;;9.73;;
3911;SDS011;1971;51.778;10.330;2023-02-03T00:30:46;213.07;;;14.10;;
3911;SDS011;1971;51.778;10.330;2023-02-03T00:33:19;237.23;;;16.53;;
3911;SDS011;1971;51.778;10.330;2023-02-03T00:35:52;420.93;;;21.67;;
3911;SDS011;1971;51.778;10.330;2023-02-03T00:38:25;340.70;;;19.47;;
3911;SDS011;1971;51.778;10.330;2023-02-03T00:40:55;307.77;;;20.10;;
3911;SDS011;1971;51.778;10.330;2023-02-03T00:43:26;292.47;;;22.17;;
3911;SDS011;1971;51.778;10.330;2023-02-03T00:45:56;180.23;;;12.83;;
3911;SDS011;1971;51.778;10.330;2023-02-03T00:48:26;419.03;;;27.07;;
3911;SDS011;1971;51.778;10.330;2023-02-03T00:51:00;260.40;;;17.37;;
3911;SDS011;1971;51.778;10.330;2023-02-03T00:53:30;302.40;;;19.03;;
3911;SDS011;1971;51.778;10.330;2023-02-03T00:56:00;423.53;;;24.13;;
3911;SDS011;1971;51.778;10.330;2023-02-03T00:58:37;471.10;;;27.80;;
3911;SDS011;1971;51.778;10.330;2023-02-03T01:01:07;267.23;;;16.60;;
3911;SDS011;1971;51.778;10.330;2023-02-03T01:03:37;602.10;;;36.13;;
3911;SDS011;1971;51.778;10.330;2023-02-03T01:06:12;549.90;;;40.87;;
3911;SDS011;1971;51.778;10.330;2023-02-03T01:08:45;663.27;;;45.77;;
3911;SDS011;1971;51.778;10.330;2023-02-03T01:11:17;317.37;;;22.20;;
3911;SDS011;1971;51.778;10.330;2023-02-03T01:13:48;633.00;;;41.47;;
3911;SDS011;1971;51.778;10.330;2023-02-03T01:16:19;688.50;;;54.37;;
3911;SDS011;1971;51.778;10.330;2023-02-03T01:18:54;714.00;;;48.93;;
3911;SDS011;1971;51.778;10.330;2023-02-03T01:21:28;825.10;;;60.30;;
3911;SDS011;1971;51.778;10.330;2023-02-03T01:23:58;638.50;;;43.87;;
3911;SDS011;1971;51.778;10.330;2023-02-03T01:26:29;713.77;;;67.10;;
3911;SDS011;1971;51.778;10.330;2023-02-03T01:28:59;538.73;;;47.83;;
3911;SDS011;1971;51.778;10.330;2023-02-03T01:31:31;815.87;;;61.53;;
3911;SDS011;1971;51.778;10.330;2023-02-03T01:34:06;1255.67;;;119.50;;
3911;SDS011;1971;51.778;10.330;2023-02-03T01:36:39;630.40;;;51.90;;
3911;SDS011;1971;51.778;10.330;2023-02-03T01:39:11;648.47;;;61.03;;
3911;SDS011;1971;51.778;10.330;2023-02-03T01:41:41;777.27;;;69.93;;
3911;SDS011;1971;51.778;10.330;2023-02-03T01:47:10;328.17;;;44.17;;
3911;SDS011;1971;51.778;10.330;2023-02-03T01:49:46;938.70;;;111.13;;
3911;SDS011;1971;51.778;10.330;2023-02-03T01:52:24;540.23;;;59.53;;
3911;SDS011;1971;51.778;10.330;2023-02-03T01:54:56;543.57;;;63.03;;
3911;SDS011;1971;51.778;10.330;2023-02-03T01:57:30;818.10;;;99.00;;
3911;SDS011;1971;51.778;10.330;2023-02-03T02:00:03;737.10;;;93.87;;
3911;SDS011;1971;51.778;10.330;2023-02-03T02:02:41;392.40;;;75.67;;
3911;SDS011;1971;51.778;10.330;2023-02-03T02:05:14;786.70;;;105.03;;
3911;SDS011;1971;51.778;10.330;2023-02-03T02:07:51;337.47;;;60.17;;
3911;SDS011;1971;51.778;10.330;2023-02-03T02:10:23;293.97;;;42.07;;
3911;SDS011;1971;51.778;10.330;2023-02-03T02:12:54;718.43;;;91.60;;
3911;SDS011;1971;51.778;10.330;2023-02-03T02:15:30;516.07;;;76.27;;
3911;SDS011;1971;51.778;10.330;2023-02-03T02:18:12;354.03;;;64.17;;
3911;SDS011;1971;51.778;10.330;2023-02-03T02:21:06;41.87;;;23.83;;
3911;SDS011;1971;51.778;10.330;2023-02-03T02:27:09;62.03;;;34.03;;
3911;SDS011;1971;51.778;10.330;2023-02-03T02:30:16;128.97;;;46.53;;
3911;SDS011;1971;51.778;10.330;2023-02-03T02:33:19;56.40;;;32.43;;
3911;SDS011;1971;51.778;10.330;2023-02-03T02:36:00;51.03;;;22.23;;
3911;SDS011;1971;51.778;10.330;2023-02-03T02:38:38;57.17;;;23.37;;
3911;SDS011;1971;51.778;10.330;2023-02-03T02:41:15;88.10;;;29.13;;
3911;SDS011;1971;51.778;10.330;2023-02-03T02:43:53;205.13;;;46.33;;
3911;SDS011;1971;51.778;10.330;2023-02-03T02:46:30;84.33;;;36.17;;
3911;SDS011;1971;51.778;10.330;2023-02-03T02:49:08;270.67;;;67.73;;
3911;SDS011;1971;51.778;10.330;2023-02-03T02:51:44;130.77;;;52.07;;
3911;SDS011;1971;51.778;10.330;2023-02-03T02:54:17;54.00;;;31.90;;
3911;SDS011;1971;51.778;10.330;2023-02-03T02:56:51;28.03;;;15.73;;
3911;SDS011;1971;51.778;10.330;2023-02-03T02:59:26;40.87;;;29.73;;
3911;SDS011;1971;51.778;10.330;2023-02-03T03:01:56;40.37;;;25.10;;
3911;SDS011;1971;51.778;10.330;2023-02-03T03:04:30;596.30;;;104.63;;
3911;SDS011;1971;51.778;10.330;2023-02-03T03:07:04;695.20;;;120.53;;
3911;SDS011;1971;51.778;10.330;2023-02-03T03:09:38;680.93;;;106.27;;
3911;SDS011;1971;51.778;10.330;2023-02-03T03:12:13;739.67;;;111.77;;
3911;SDS011;1971;51.778;10.330;2023-02-03T03:14:46;43.80;;;29.00;;
3911;SDS011;1971;51.778;10.330;2023-02-03T03:17:19;91.87;;;41.63;;
3911;SDS011;1971;51.778;10.330;2023-02-03T03:19:56;54.07;;;33.00;;
3911;SDS011;1971;51.778;10.330;2023-02-03T03:22:31;40.27;;;27.47;;
3911;SDS011;1971;51.778;10.330;2023-02-03T03:25:07;49.23;;;29.77;;
3911;SDS011;1971;51.778;10.330;2023-02-03T03:27:41;135.63;;;45.40;;
3911;SDS011;1971;51.778;10.330;2023-02-03T03:30:19;131.60;;;38.73;;
3911;SDS011;1971;51.778;10.330;2023-02-03T03:32:54;96.70;;;41.43;;
3911;SDS011;1971;51.778;10.330;2023-02-03T03:35:30;42.73;;;28.33;;
3911;SDS011;1971;51.778;10.330;2023-02-03T03:38:07;328.93;;;64.57;;
3911;SDS011;1971;51.778;10.330;2023-02-03T03:40:41;63.43;;;35.03;;
3911;SDS011;1971;51.778;10.330;2023-02-03T03:43:18;484.67;;;91.30;;
3911;SDS011;1971;51.778;10.330;2023-02-03T03:45:52;83.40;;;39.47;;
3911;SDS011;1971;51.778;10.330;2023-02-03T03:48:25;45.50;;;30.03;;
3911;SDS011;1971;51.778;10.330;2023-02-03T03:51:01;39.17;;;29.80;;
3911;SDS011;1971;51.778;10.330;2023-02-03T03:53:33;39.87;;;28.97;;
3911;SDS011;1971;51.778;10.330;2023-02-03T03:56:08;40.97;;;29.57;;
3911;SDS011;1971;51.778;10.330;2023-02-03T03:58:42;40.00;;;28.33;;
3911;SDS011;1971;51.778;10.330;2023-02-03T04:01:15;40.23;;;28.30;;
3911;SDS011;1971;51.778;10.330;2023-02-03T04:03:47;34.37;;;25.80;;
3911;SDS011;1971;51.778;10.330;2023-02-03T04:06:23;34.63;;;25.97;;
3911;SDS011;1971;51.778;10.330;2023-02-03T04:08:53;34.80;;;25.07;;
3911;SDS011;1971;51.778;10.330;2023-02-03T04:11:23;37.00;;;26.53;;
3911;SDS011;1971;51.778;10.330;2023-02-03T04:14:05;38.70;;;27.50;;
3911;SDS011;1971;51.778;10.330;2023-02-03T04:16:35;29.83;;;22.00;;
3911;SDS011;1971;51.778;10.330;2023-02-03T04:19:06;33.37;;;24.27;;
3911;SDS011;1971;51.778;10.330;2023-02-03T04:21:38;31.57;;;24.00;;
3911;SDS011;1971;51.778;10.330;2023-02-03T04:24:08;25.80;;;18.00;;
3911;SDS011;1971;51.778;10.330;2023-02-03T04:26:38;27.90;;;22.33;;
3911;SDS011;1971;51.778;10.330;2023-02-03T04:29:08;30.07;;;22.30;;
3911;SDS011;1971;51.778;10.330;2023-02-03T04:31:39;23.20;;;15.87;;
3911;SDS011;1971;51.778;10.330;2023-02-03T04:34:09;28.17;;;21.80;;
3911;SDS011;1971;51.778;10.330;2023-02-03T04:36:42;22.37;;;14.87;;
3911;SDS011;1971;51.778;10.330;2023-02-03T04:39:12;28.17;;;21.80;;
3911;SDS011;1971;51.778;10.330;2023-02-03T04:41:42;30.33;;;21.53;;
3911;SDS011;1971;51.778;10.330;2023-02-03T04:44:12;28.20;;;20.93;;
3911;SDS011;1971;51.778;10.330;2023-02-03T04:46:42;26.63;;;21.57;;
3911;SDS011;1971;51.778;10.330;2023-02-03T04:49:12;20.80;;;15.40;;
3911;SDS011;1971;51.778;10.330;2023-02-03T04:51:46;23.10;;;19.53;;
3911;SDS011;1971;51.778;10.330;2023-02-03T04:54:17;24.27;;;19.37;;
3911;SDS011;1971;51.778;10.330;2023-02-03T04:56:47;24.13;;;20.90;;
3911;SDS011;1971;51.778;10.330;2023-02-03T04:59:17;23.90;;;19.53;;
3911;SDS011;1971;51.778;10.330;2023-02-03T05:01:47;28.90;;;21.17;;
3911;SDS011;1971;51.778;10.330;2023-02-03T05:04:17;24.83;;;21.73;;
3911;SDS011;1971;51.778;10.330;2023-02-03T05:06:49;21.70;;;19.00;;
3911;SDS011;1971;51.778;10.330;2023-02-03T05:09:21;21.73;;;18.90;;
3911;SDS011;1971;51.778;10.330;2023-02-03T05:11:52;19.73;;;17.60;;
3911;SDS011;1971;51.778;10.330;2023-02-03T05:14:22;21.10;;;17.70;;
3911;SDS011;1971;51.778;10.330;2023-02-03T05:16:51;18.57;;;16.03;;
3911;SDS011;1971;51.778;10.330;2023-02-03T05:19:22;18.00;;;16.10;;
3911;SDS011;1971;51.778;10.330;2023-02-03T05:21:55;18.90;;;16.97;;
3911;SDS011;1971;51.778;10.330;2023-02-03T05:24:25;18.80;;;16.77;;
3911;SDS011;1971;51.778;10.330;2023-02-03T05:26:55;17.97;;;16.07;;
3911;SDS011;1971;51.778;10.330;2023-02-03T05:29:26;18.47;;;16.33;;
3911;SDS011;1971;51.778;10.330;2023-02-03T05:31:55;19.47;;;16.27;;
3911;SDS011;1971;51.778;10.330;2023-02-03T05:34:25;15.53;;;12.23;;
3911;SDS011;1971;51.778;10.330;2023-02-03T05:36:58;18.47;;;15.40;;
3911;SDS011;1971;51.778;10.330;2023-02-03T05:39:29;19.20;;;17.13;;
3911;SDS011;1971;51.778;10.330;2023-02-03T05:41:59;18.17;;;16.37;;
3911;SDS011;1971;51.778;10.330;2023-02-03T05:44:26;16.80;;;15.03;;
3911;SDS011;1971;51.778;10.330;2023-02-03T05:46:58;18.40;;;16.53;;
3911;SDS011;1971;51.778;10.330;2023-02-03T05:49:27;18.07;;;16.27;;
3911;SDS011;1971;51.778;10.330;2023-02-03T05:52:00;18.37;;;16.63;;
3911;SDS011;1971;51.778;10.330;2023-02-03T05:54:30;16.90;;;15.20;;
3911;SDS011;1971;51.778;10.330;2023-02-03T05:57:00;16.90;;;15.33;;
3911;SDS011;1971;51.778;10.330;2023-02-03T05:59:30;10.70;;;9.60;;
3911;SDS011;1971;51.778;10.330;2023-02-03T06:02:01;13.80;;;11.80;;
3911;SDS011;1971;51.778;10.330;2023-02-03T06:04:31;14.73;;;13.43;;
3911;SDS011;1971;51.778;10.330;2023-02-03T06:07:04;16.33;;;14.77;;
3911;SDS011;1971;51.778;10.330;2023-02-03T06:09:34;15.70;;;13.67;;
3911;SDS011;1971;51.778;10.330;2023-02-03T06:12:04;14.83;;;12.80;;
3911;SDS011;1971;51.778;10.330;2023-02-03T06:14:34;15.57;;;14.07;;
3911;SDS011;1971;51.778;10.330;2023-02-03T06:17:04;14.83;;;13.47;;
3911;SDS011;1971;51.778;10.330;2023-02-03T06:19:35;13.40;;;12.10;;
3911;SDS011;1971;51.778;10.330;2023-02-03T06:22:07;13.97;;;12.73;;
3911;SDS011;1971;51.778;10.330;2023-02-03T06:24:37;13.77;;;12.37;;
3911;SDS011;1971;51.778;10.330;2023-02-03T06:27:07;13.60;;;12.50;;
3911;SDS011;1971;51.778;10.330;2023-02-03T06:29:38;14.47;;;13.07;;
3911;SDS011;1971;51.778;10.330;2023-02-03T06:32:09;13.13;;;11.80;;
3911;SDS011;1971;51.778;10.330;2023-02-03T06:34:39;14.07;;;12.73;;
3911;SDS011;1971;51.778;10.330;2023-02-03T06:37:11;14.00;;;12.57;;
3911;SDS011;1971;51.778;10.330;2023-02-03T06:39:41;13.90;;;12.60;;
3911;SDS011;1971;51.778;10.330;2023-02-03T06:42:12;13.00;;;11.90;;
3911;SDS011;1971;51.778;10.330;2023-02-03T06:44:41;12.83;;;10.70;;
3911;SDS011;1971;51.778;10.330;2023-02-03T06:47:12;15.53;;;12.10;;
3911;SDS011;1971;51.778;10.330;2023-02-03T06:49:41;14.43;;;13.10;;
3911;SDS011;1971;51.778;10.330;2023-02-03T06:52:14;13.40;;;11.67;;
3911;SDS011;1971;51.778;10.330;2023-02-03T06:54:44;13.63;;;12.40;;
3911;SDS011;1971;51.778;10.330;2023-02-03T06:57:14;13.37;;;12.00;;
3911;SDS011;1971;51.778;10.330;2023-02-03T06:59:44;13.70;;;12.40;;
3911;SDS011;1971;51.778;10.330;2023-02-03T07:02:14;14.20;;;12.80;;
3911;SDS011;1971;51.778;10.330;2023-02-03T07:04:44;13.43;;;11.33;;
3911;SDS011;1971;51.778;10.330;2023-02-03T07:07:17;13.87;;;12.47;;
3911;SDS011;1971;51.778;10.330;2023-02-03T07:09:47;15.17;;;12.03;;
3911;SDS011;1971;51.778;10.330;2023-02-03T07:12:17;14.30;;;12.80;;
3911;SDS011;1971;51.778;10.330;2023-02-03T07:14:47;14.57;;;13.03;;
3911;SDS011;1971;51.778;10.330;2023-02-03T07:17:18;14.33;;;12.93;;
3911;SDS011;1971;51.778;10.330;2023-02-03T07:19:48;14.60;;;13.30;;
3911;SDS011;1971;51.778;10.330;2023-02-03T07:22:20;12.47;;;11.37;;
3911;SDS011;1971;51.778;10.330;2023-02-03T07:24:50;14.90;;;13.40;;
3911;SDS011;1971;51.778;10.330;2023-02-03T07:27:21;14.10;;;12.77;;
3911;SDS011;1971;51.778;10.330;2023-02-03T07:29:51;17.80;;;14.00;;
3911;SDS011;1971;51.778;10.330;2023-02-03T07:32:20;12.83;;;11.53;;
3911;SDS011;1971;51.778;10.330;2023-02-03T07:34:51;17.37;;;15.57;;
3911;SDS011;1971;51.778;10.330;2023-02-03T07:37:23;15.60;;;14.10;;
3911;SDS011;1971;51.778;10.330;2023-02-03T07:39:53;19.80;;;15.40;;
3911;SDS011;1971;51.778;10.330;2023-02-03T07:42:23;15.53;;;14.03;;
3911;SDS011;1971;51.778;10.330;2023-02-03T07:44:55;14.00;;;12.77;;
3911;SDS011;1971;51.778;10.330;2023-02-03T07:47:26;15.60;;;13.97;;
3911;SDS011;1971;51.778;10.330;2023-02-03T07:49:56;16.03;;;13.90;;
3911;SDS011;1971;51.778;10.330;2023-02-03T07:52:29;13.80;;;12.33;;
3911;SDS011;1971;51.778;10.330;2023-02-03T07:54:59;15.83;;;14.20;;
3911;SDS011;1971;51.778;10.330;2023-02-03T07:57:29;14.60;;;13.10;;
3911;SDS011;1971;51.778;10.330;2023-02-03T07:59:58;13.17;;;11.43;;
3911;SDS011;1971;51.778;10.330;2023-02-03T08:02:37;12.03;;;10.83;;
3911;SDS011;1971;51.778;10.330;2023-02-03T08:05:07;13.20;;;11.30;;
3911;SDS011;1971;51.778;10.330;2023-02-03T08:07:41;13.77;;;11.70;;
3911;SDS011;1971;51.778;10.330;2023-02-03T08:10:11;28.73;;;14.37;;
3911;SDS011;1971;51.778;10.330;2023-02-03T08:12:43;514.60;;;86.00;;
3911;SDS011;1971;51.778;10.330;2023-02-03T08:15:13;88.57;;;25.90;;
3911;SDS011;1971;51.778;10.330;2023-02-03T08:17:43;190.30;;;34.90;;
3911;SDS011;1971;51.778;10.330;2023-02-03T08:20:14;365.70;;;61.97;;
3911;SDS011;1971;51.778;10.330;2023-02-03T08:22:47;15.87;;;10.37;;
3911;SDS011;1971;51.778;10.330;2023-02-03T08:25:17;11.53;;;9.57;;
3911;SDS011;1971;51.778;10.330;2023-02-03T08:27:48;22.13;;;10.93;;
3911;SDS011;1971;51.778;10.330;2023-02-03T08:30:18;128.70;;;27.70;;
3911;SDS011;1971;51.778;10.330;2023-02-03T08:32:48;439.93;;;62.90;;
3911;SDS011;1971;51.778;10.330;2023-02-03T08:35:18;78.03;;;20.70;;
3911;SDS011;1971;51.778;10.330;2023-02-03T08:37:50;19.33;;;10.40;;
3911;SDS011;1971;51.778;10.330;2023-02-03T08:40:21;9.90;;;8.67;;
3911;SDS011;1971;51.778;10.330;2023-02-03T08:42:51;8.07;;;7.37;;
3911;SDS011;1971;51.778;10.330;2023-02-03T08:45:22;7.10;;;6.50;;
3911;SDS011;1971;51.778;10.330;2023-02-03T08:47:52;8.03;;;7.30;;
3911;SDS011;1971;51.778;10.330;2023-02-03T08:50:22;9.03;;;6.87;;
3911;SDS011;1971;51.778;10.330;2023-02-03T08:52:55;7.83;;;7.13;;
3911;SDS011;1971;51.778;10.330;2023-02-03T08:55:26;6.70;;;6.00;;
3911;SDS011;1971;51.778;10.330;2023-02-03T08:57:56;6.73;;;6.17;;
3911;SDS011;1971;51.778;10.330;2023-02-03T09:00:26;7.23;;;6.53;;
3911;SDS011;1971;51.778;10.330;2023-02-03T09:02:56;5.80;;;5.20;;
3911;SDS011;1971;51.778;10.330;2023-02-03T09:05:26;5.93;;;5.40;;
3911;SDS011;1971;51.778;10.330;2023-02-03T09:08:01;6.30;;;5.70;;
3911;SDS011;1971;51.778;10.330;2023-02-03T09:10:31;6.07;;;5.57;;
3911;SDS011;1971;51.778;10.330;2023-02-03T09:13:02;5.13;;;4.63;;
3911;SDS011;1971;51.778;10.330;2023-02-03T09:15:32;5.70;;;5.20;;
3911;SDS011;1971;51.778;10.330;2023-02-03T09:18:02;5.87;;;5.37;;
3911;SDS011;1971;51.778;10.330;2023-02-03T09:20:32;5.87;;;5.30;;
3911;SDS011;1971;51.778;10.330;2023-02-03T09:23:04;5.30;;;4.90;;
3911;SDS011;1971;51.778;10.330;2023-02-03T09:25:34;6.27;;;5.67;;
3911;SDS011;1971;51.778;10.330;2023-02-03T09:28:04;5.50;;;5.00;;
3911;SDS011;1971;51.778;10.330;2023-02-03T09:30:34;6.23;;;5.70;;
3911;SDS011;1971;51.778;10.330;2023-02-03T09:33:04;5.97;;;5.33;;
3911;SDS011;1971;51.778;10.330;2023-02-03T09:35:34;5.27;;;4.80;;
3911;SDS011;1971;51.778;10.330;2023-02-03T09:38:07;5.70;;;5.20;;
3911;SDS011;1971;51.778;10.330;2023-02-03T09:40:36;4.50;;;4.10;;
3911;SDS011;1971;51.778;10.330;2023-02-03T09:43:10;4.20;;;3.80;;
3911;SDS011;1971;51.778;10.330;2023-02-03T09:45:45;4.10;;;3.80;;
3911;SDS011;1971;51.778;10.330;2023-02-03T09:48:17;4.60;;;4.20;;
3911;SDS011;1971;51.778;10.330;2023-02-03T09:50:52;4.00;;;3.70;;
3911;SDS011;1971;51.778;10.330;2023-02-03T09:53:27;4.10;;;3.70;;
3911;SDS011;1971;51.778;10.330;2023-02-03T09:56:02;3.83;;;3.53;;
3911;SDS011;1971;51.778;10.330;2023-02-03T09:58:34;4.50;;;4.10;;
3911;SDS011;1971;51.778;10.330;2023-02-03T10:01:05;12.73;;;5.00;;
3911;SDS011;1971;51.778;10.330;2023-02-03T10:03:41;7.63;;;4.57;;
3911;SDS011;1971;51.778;10.330;2023-02-03T10:06:18;8.47;;;4.40;;
3911;SDS011;1971;51.778;10.330;2023-02-03T10:09:13;6.23;;;5.60;;
3911;SDS011;1971;51.778;10.330;2023-02-03T10:12:06;8.30;;;5.77;;
3911;SDS011;1971;51.778;10.330;2023-02-03T10:14:50;5.60;;;5.10;;
3911;SDS011;1971;51.778;10.330;2023-02-03T10:17:29;4.93;;;4.53;;
3911;SDS011;1971;51.778;10.330;2023-02-03T10:20:03;5.20;;;4.70;;
3911;SDS011;1971;51.778;10.330;2023-02-03T10:22:40;7.40;;;5.80;;
3911;SDS011;1971;51.778;10.330;2023-02-03T10:25:18;5.23;;;4.60;;
3911;SDS011;1971;51.778;10.330;2023-02-03T10:27:50;7.20;;;5.40;;
3911;SDS011;1971;51.778;10.330;2023-02-03T10:30:24;5.10;;;4.60;;
3911;SDS011;1971;51.778;10.330;2023-02-03T10:32:59;5.83;;;5.33;;
3911;SDS011;1971;51.778;10.330;2023-02-03T10:35:39;5.07;;;4.60;;
3911;SDS011;1971;51.778;10.330;2023-02-03T10:38:19;65.63;;;12.37;;
3911;SDS011;1971;51.778;10.330;2023-02-03T10:40:58;134.10;;;16.73;;
3911;SDS011;1971;51.778;10.330;2023-02-03T10:43:29;242.60;;;26.43;;
3911;SDS011;1971;51.778;10.330;2023-02-03T10:46:25;94.33;;;12.13;;
3911;SDS011;1971;51.778;10.330;2023-02-03T10:48:57;91.53;;;12.43;;
3911;SDS011;1971;51.778;10.330;2023-02-03T10:51:27;78.50;;;12.73;;
3911;SDS011;1971;51.778;10.330;2023-02-03T10:54:02;106.80;;;14.63;;
3911;SDS011;1971;51.778;10.330;2023-02-03T10:56:36;33.97;;;5.97;;
3911;SDS011;1971;51.778;10.330;2023-02-03T10:59:21;7.10;;;3.37;;
3911;SDS011;1971;51.778;10.330;2023-02-03T11:01:57;16.30;;;5.30;;
3911;SDS011;1971;51.778;10.330;2023-02-03T11:04:28;4.53;;;4.13;;
3911;SDS011;1971;51.778;10.330;2023-02-03T11:07:00;5.27;;;4.20;;
3911;SDS011;1971;51.778;10.330;2023-02-03T11:09:32;4.57;;;4.17;;
3911;SDS011;1971;51.778;10.330;2023-02-03T11:12:09;4.63;;;3.90;;
3911;SDS011;1971;51.778;10.330;2023-02-03T11:14:43;2.93;;;2.60;;
3911;SDS011;1971;51.778;10.330;2023-02-03T11:17:15;2.67;;;2.47;;
3911;SDS011;1971;51.778;10.330;2023-02-03T11:19:48;2.53;;;1.60;;
3911;SDS011;1971;51.778;10.330;2023-02-03T11:22:26;1.30;;;1.20;;
3911;SDS011;1971;51.778;10.330;2023-02-03T11:24:58;0.60;;;0.60;;
3911;SDS011;1971;51.778;10.330;2023-02-03T11:27:32;0.50;;;0.50;;
3911;SDS011;1971;51.778;10.330;2023-02-03T11:30:08;0.90;;;0.90;;
3911;SDS011;1971;51.778;10.330;2023-02-03T11:32:42;0.53;;;0.53;;
3911;SDS011;1971;51.778;10.330;2023-02-03T11:35:16;0.80;;;0.80;;
3911;SDS011;1971;51.778;10.330;2023-02-03T11:37:50;0.80;;;0.80;;
3911;SDS011;1971;51.778;10.330;2023-02-03T11:40:23;1.90;;;1.33;;
3911;SDS011;1971;51.778;10.330;2023-02-03T11:43:01;2.60;;;1.40;;
3911;SDS011;1971;51.778;10.330;2023-02-03T11:45:35;1.70;;;1.20;;
3911;SDS011;1971;51.778;10.330;2023-02-03T11:48:16;1.63;;;1.43;;
3911;SDS011;1971;51.778;10.330;2023-02-03T11:50:55;4.00;;;1.60;;
3911;SDS011;1971;51.778;10.330;2023-02-03T11:53:35;1.80;;;1.20;;
3911;SDS011;1971;51.778;10.330;2023-02-03T11:56:36;2.23;;;1.13;;
3911;SDS011;1971;51.778;10.330;2023-02-03T11:59:33;3.70;;;1.70;;
3911;SDS011;1971;51.778;10.330;2023-02-03T12:02:22;3.20;;;1.60;;
3911;SDS011;1971;51.778;10.330;2023-02-03T12:05:19;3.40;;;2.07;;
3911;SDS011;1971;51.778;10.330;2023-02-03T12:08:12;5.73;;;2.70;;
3911;SDS011;1971;51.778;10.330;2023-02-03T12:10:53;5.23;;;2.27;;
3911;SDS011;1971;51.778;10.330;2023-02-03T12:13:38;8.87;;;3.20;;
3911;SDS011;1971;51.778;10.330;2023-02-03T12:16:41;4.20;;;2.40;;
3911;SDS011;1971;51.778;10.330;2023-02-03T12:19:24;5.40;;;2.30;;
3911;SDS011;1971;51.778;10.330;2023-02-03T12:22:07;7.13;;;2.50;;
3911;SDS011;1971;51.778;10.330;2023-02-03T12:24:50;8.87;;;2.93;;
3911;SDS011;1971;51.778;10.330;2023-02-03T12:27:32;5.53;;;2.20;;
3911;SDS011;1971;51.778;10.330;2023-02-03T12:30:13;4.40;;;2.40;;
3911;SDS011;1971;51.778;10.330;2023-02-03T12:32:50;3.73;;;2.47;;
3911;SDS011;1971;51.778;10.330;2023-02-03T12:35:24;4.10;;;2.90;;
3911;SDS011;1971;51.778;10.330;2023-02-03T12:38:02;7.40;;;3.20;;
3911;SDS011;1971;51.778;10.330;2023-02-03T12:40:38;8.57;;;3.60;;
3911;SDS011;1971;51.778;10.330;2023-02-03T12:43:17;8.73;;;4.20;;
3911;SDS011;1971;51.778;10.330;2023-02-03T12:45:53;5.17;;;3.30;;
3911;SDS011;1971;51.778;10.330;2023-02-03T12:48:31;6.60;;;2.90;;
3911;SDS011;1971;51.778;10.330;2023-02-03T12:51:07;5.23;;;3.93;;
3911;SDS011;1971;51.778;10.330;2023-02-03T12:53:44;7.33;;;4.00;;
3911;SDS011;1971;51.778;10.330;2023-02-03T12:56:21;8.37;;;4.20;;
3911;SDS011;1971;51.778;10.330;2023-02-03T12:58:59;6.00;;;3.27;;
3911;SDS011;1971;51.778;10.330;2023-02-03T13:01:35;7.27;;;3.33;;
3911;SDS011;1971;51.778;10.330;2023-02-03T13:04:15;10.23;;;3.80;;
3911;SDS011;1971;51.778;10.330;2023-02-03T13:06:56;13.73;;;3.67;;
3911;SDS011;1971;51.778;10.330;2023-02-03T13:09:34;7.60;;;3.37;;
3911;SDS011;1971;51.778;10.330;2023-02-03T13:12:09;9.57;;;3.03;;
3911;SDS011;1971;51.778;10.330;2023-02-03T13:14:46;6.40;;;3.37;;
3911;SDS011;1971;51.778;10.330;2023-02-03T13:17:19;7.77;;;3.97;;
3911;SDS011;1971;51.778;10.330;2023-02-03T13:19:58;10.30;;;3.27;;
3911;SDS011;1971;51.778;10.330;2023-02-03T13:22:33;10.57;;;4.70;;
3911;SDS011;1971;51.778;10.330;2023-02-03T13:25:04;7.63;;;3.23;;
3911;SDS011;1971;51.778;10.330;2023-02-03T13:27:45;8.70;;;3.63;;
3911;SDS011;1971;51.778;10.330;2023-02-03T13:30:27;13.70;;;5.23;;
3911;SDS011;1971;51.778;10.330;2023-02-03T13:33:17;8.03;;;4.00;;
3911;SDS011;1971;51.778;10.330;2023-02-03T13:36:12;9.83;;;3.67;;
3911;SDS011;1971;51.778;10.330;2023-02-03T13:39:07;25.73;;;6.17;;
3911;SDS011;1971;51.778;10.330;2023-02-03T13:41:52;6.90;;;3.07;;
3911;SDS011;1971;51.778;10.330;2023-02-03T13:44:25;9.27;;;4.10;;
3911;SDS011;1971;51.778;10.330;2023-02-03T13:46:58;9.80;;;3.97;;
3911;SDS011;1971;51.778;10.330;2023-02-03T13:49:28;9.30;;;4.90;;
3911;SDS011;1971;51.778;10.330;2023-02-03T13:52:04;9.40;;;4.30;;
3911;SDS011;1971;51.778;10.330;2023-02-03T13:54:35;11.33;;;3.60;;
3911;SDS011;1971;51.778;10.330;2023-02-03T13:57:17;10.37;;;3.90;;
3911;SDS011;1971;51.778;10.330;2023-02-03T13:59:50;9.23;;;3.90;;
3911;SDS011;1971;51.778;10.330;2023-02-03T14:02:30;12.33;;;4.07;;
3911;SDS011;1971;51.778;10.330;2023-02-03T14:20:32;10.87;;;3.60;;
3911;SDS011;1971;51.778;10.330;2023-02-03T14:23:18;13.13;;;4.70;;
3911;SDS011;1971;51.778;10.330;2023-02-03T14:25:59;7.80;;;3.40;;
3911;SDS011;1971;51.778;10.330;2023-02-03T14:28:36;9.23;;;3.10;;
3911;SDS011;1971;51.778;10.330;2023-02-03T14:31:09;9.10;;;3.47;;
3911;SDS011;1971;51.778;10.330;2023-02-03T14:33:49;6.40;;;3.10;;
3911;SDS011;1971;51.778;10.330;2023-02-03T14:36:33;7.27;;;2.90;;
3911;SDS011;1971;51.778;10.330;2023-02-03T14:45:55;5.77;;;3.00;;
3911;SDS011;1971;51.778;10.330;2023-02-03T14:51:50;8.40;;;4.97;;
3911;SDS011;1971;51.778;10.330;2023-02-03T14:54:37;6.50;;;3.67;;
3911;SDS011;1971;51.778;10.330;2023-02-03T14:57:26;7.20;;;4.30;;
3911;SDS011;1971;51.778;10.330;2023-02-03T15:00:04;14.50;;;4.57;;
3911;SDS011;1971;51.778;10.330;2023-02-03T15:03:13;9.30;;;4.30;;
3911;SDS011;1971;51.778;10.330;2023-02-03T15:05:45;8.07;;;3.53;;
3911;SDS011;1971;51.778;10.330;2023-02-03T15:08:32;7.50;;;3.70;;
3911;SDS011;1971;51.778;10.330;2023-02-03T15:13:52;7.80;;;3.10;;
3911;SDS011;1971;51.778;10.330;2023-02-03T15:16:23;7.33;;;3.67;;
3911;SDS011;1971;51.778;10.330;2023-02-03T15:18:58;6.73;;;3.37;;
3911;SDS011;1971;51.778;10.330;2023-02-03T15:21:39;8.53;;;3.30;;
3911;SDS011;1971;51.778;10.330;2023-02-03T15:24:12;9.60;;;3.63;;
3911;SDS011;1971;51.778;10.330;2023-02-03T15:26:45;5.80;;;3.20;;
3911;SDS011;1971;51.778;10.330;2023-02-03T15:32:05;9.67;;;3.33;;
3911;SDS011;1971;51.778;10.330;2023-02-03T15:34:43;10.00;;;4.17;;
3911;SDS011;1971;51.778;10.330;2023-02-03T15:37:17;9.37;;;3.53;;
3911;SDS011;1971;51.778;10.330;2023-02-03T15:39:55;8.83;;;4.23;;
3911;SDS011;1971;51.778;10.330;2023-02-03T15:42:29;11.97;;;4.77;;
3911;SDS011;1971;51.778;10.330;2023-02-03T15:45:05;8.83;;;4.17;;
3911;SDS011;1971;51.778;10.330;2023-02-03T15:47:45;10.90;;;4.57;;
3911;SDS011;1971;51.778;10.330;2023-02-03T15:50:25;8.80;;;3.63;;
3911;SDS011;1971;51.778;10.330;2023-02-03T15:53:03;9.80;;;4.03;;
3911;SDS011;1971;51.778;10.330;2023-02-03T15:55:35;9.00;;;3.80;;
3911;SDS011;1971;51.778;10.330;2023-02-03T15:58:11;11.43;;;3.80;;
3911;SDS011;1971;51.778;10.330;2023-02-03T16:00:46;6.33;;;2.70;;
3911;SDS011;1971;51.778;10.330;2023-02-03T16:03:18;9.40;;;3.63;;